ΕΜΥ, Εθνική Μετεωρολογική Υπηρεσία - Δελτία Καιρού, Προγνώσεις

ΑΕΡΟΝΑΥΤΙΛΙΑ

GREEK AIRPORTS CODES

TAF LGSR 251100Z 2512/2612 35020G30KT 9999 FEW025 BECMG 2512/2514 35015G25KT BECMG 2518/2520 30015KT=

EUROPEAN AIRPORTS CODES

LIRF 251550Z 22007KT 190V250 CAVOK 16/08 Q1013 NOSIG=